sensor_id;sensor_type;location;lat;lon;timestamp;pressure;altitude;pressure_sealevel;temperature;humidity
25638;BME280;13496;51.040;13.680;2024-03-06T00:01:02;99979.50;;;19.36;48.77
25638;BME280;13496;51.040;13.680;2024-03-06T00:06:04;99974.84;;;19.38;48.84
25638;BME280;13496;51.040;13.680;2024-03-06T00:11:06;99973.41;;;19.36;48.68
25638;BME280;13496;51.040;13.680;2024-03-06T00:16:09;99981.91;;;19.38;48.69
25638;BME280;13496;51.040;13.680;2024-03-06T00:21:11;99983.31;;;19.33;48.71
25638;BME280;13496;51.040;13.680;2024-03-06T00:26:13;99983.66;;;19.30;48.55
25638;BME280;13496;51.040;13.680;2024-03-06T00:31:15;99994.19;;;19.30;48.96
25638;BME280;13496;51.040;13.680;2024-03-06T00:36:17;100002.09;;;19.30;48.68
25638;BME280;13496;51.040;13.680;2024-03-06T00:41:18;99993.59;;;19.28;48.61
25638;BME280;13496;51.040;13.680;2024-03-06T00:46:20;100001.63;;;19.27;48.87
25638;BME280;13496;51.040;13.680;2024-03-06T00:51:22;100006.09;;;19.26;48.92
25638;BME280;13496;51.040;13.680;2024-03-06T00:56:24;100004.28;;;19.27;48.62
25638;BME280;13496;51.040;13.680;2024-03-06T01:01:27;100003.25;;;19.28;48.83
25638;BME280;13496;51.040;13.680;2024-03-06T01:06:29;100010.19;;;19.29;48.75
25638;BME280;13496;51.040;13.680;2024-03-06T01:11:31;100007.09;;;19.25;48.71
25638;BME280;13496;51.040;13.680;2024-03-06T01:16:32;100002.41;;;19.21;48.76
25638;BME280;13496;51.040;13.680;2024-03-06T01:21:34;100006.00;;;19.20;48.68
25638;BME280;13496;51.040;13.680;2024-03-06T01:26:36;100013.53;;;19.23;48.85
25638;BME280;13496;51.040;13.680;2024-03-06T01:31:38;100011.91;;;19.22;48.85
25638;BME280;13496;51.040;13.680;2024-03-06T01:36:40;100007.66;;;19.21;49.03
25638;BME280;13496;51.040;13.680;2024-03-06T01:41:45;100019.16;;;19.20;48.68
25638;BME280;13496;51.040;13.680;2024-03-06T01:46:48;100023.00;;;19.17;48.60
25638;BME280;13496;51.040;13.680;2024-03-06T01:51:53;100015.72;;;19.19;48.98
25638;BME280;13496;51.040;13.680;2024-03-06T01:56:55;100028.63;;;19.14;48.98
25638;BME280;13496;51.040;13.680;2024-03-06T02:02:00;100024.19;;;19.15;48.54
25638;BME280;13496;51.040;13.680;2024-03-06T02:07:03;100030.44;;;19.14;48.74
25638;BME280;13496;51.040;13.680;2024-03-06T02:12:06;100026.97;;;19.13;48.89
25638;BME280;13496;51.040;13.680;2024-03-06T02:17:09;100026.00;;;19.14;49.03
25638;BME280;13496;51.040;13.680;2024-03-06T02:22:11;100024.34;;;19.13;48.51
25638;BME280;13496;51.040;13.680;2024-03-06T02:27:13;100018.28;;;19.13;48.56
25638;BME280;13496;51.040;13.680;2024-03-06T02:32:15;100022.09;;;19.10;48.62
25638;BME280;13496;51.040;13.680;2024-03-06T02:37:19;100042.13;;;19.11;49.00
25638;BME280;13496;51.040;13.680;2024-03-06T02:42:21;100049.66;;;19.14;48.86
25638;BME280;13496;51.040;13.680;2024-03-06T02:47:23;100048.00;;;19.13;48.96
25638;BME280;13496;51.040;13.680;2024-03-06T02:52:25;100051.03;;;19.10;49.01
25638;BME280;13496;51.040;13.680;2024-03-06T02:57:27;100047.16;;;19.06;49.13
25638;BME280;13496;51.040;13.680;2024-03-06T03:02:30;100049.38;;;19.09;49.12
25638;BME280;13496;51.040;13.680;2024-03-06T03:07:33;100054.03;;;19.07;49.04
25638;BME280;13496;51.040;13.680;2024-03-06T03:12:35;100056.47;;;19.08;48.78
25638;BME280;13496;51.040;13.680;2024-03-06T03:17:36;100059.28;;;19.07;49.10
25638;BME280;13496;51.040;13.680;2024-03-06T03:22:39;100066.53;;;19.05;49.33
25638;BME280;13496;51.040;13.680;2024-03-06T03:27:41;100077.06;;;19.05;49.16
25638;BME280;13496;51.040;13.680;2024-03-06T03:32:45;100085.75;;;19.05;49.07
25638;BME280;13496;51.040;13.680;2024-03-06T03:37:47;100087.75;;;19.03;48.88
25638;BME280;13496;51.040;13.680;2024-03-06T03:42:48;100093.19;;;19.02;49.14
25638;BME280;13496;51.040;13.680;2024-03-06T03:47:50;100093.75;;;18.97;49.27
25638;BME280;13496;51.040;13.680;2024-03-06T03:52:52;100092.38;;;19.01;49.29
25638;BME280;13496;51.040;13.680;2024-03-06T03:57:54;100095.19;;;19.00;48.88
25638;BME280;13496;51.040;13.680;2024-03-06T04:02:56;100103.72;;;19.02;49.29
25638;BME280;13496;51.040;13.680;2024-03-06T04:07:57;100122.31;;;19.00;49.00
25638;BME280;13496;51.040;13.680;2024-03-06T04:12:59;100114.41;;;19.00;49.32
25638;BME280;13496;51.040;13.680;2024-03-06T04:18:01;100124.13;;;19.00;49.30
25638;BME280;13496;51.040;13.680;2024-03-06T04:23:03;100126.75;;;19.00;49.33
25638;BME280;13496;51.040;13.680;2024-03-06T04:28:06;100127.56;;;19.00;48.74
25638;BME280;13496;51.040;13.680;2024-03-06T04:33:09;100124.28;;;18.98;49.22
25638;BME280;13496;51.040;13.680;2024-03-06T04:38:15;100130.41;;;18.99;49.36
25638;BME280;13496;51.040;13.680;2024-03-06T04:43:17;100135.00;;;18.97;48.95
25638;BME280;13496;51.040;13.680;2024-03-06T04:48:19;100148.16;;;18.97;48.89
25638;BME280;13496;51.040;13.680;2024-03-06T04:53:20;100142.25;;;18.95;49.40
25638;BME280;13496;51.040;13.680;2024-03-06T04:58:22;100162.31;;;18.96;49.30
25638;BME280;13496;51.040;13.680;2024-03-06T05:03:24;100159.03;;;18.94;49.19
25638;BME280;13496;51.040;13.680;2024-03-06T05:08:26;100164.94;;;18.96;48.89
25638;BME280;13496;51.040;13.680;2024-03-06T05:13:28;100163.28;;;18.95;49.10
25638;BME280;13496;51.040;13.680;2024-03-06T05:18:30;100163.66;;;18.92;49.22
25638;BME280;13496;51.040;13.680;2024-03-06T05:23:31;100163.81;;;18.90;49.06
25638;BME280;13496;51.040;13.680;2024-03-06T05:28:33;100171.56;;;18.92;49.05
25638;BME280;13496;51.040;13.680;2024-03-06T05:33:35;100184.50;;;18.93;49.40
25638;BME280;13496;51.040;13.680;2024-03-06T05:38:37;100191.78;;;18.91;48.96
25638;BME280;13496;51.040;13.680;2024-03-06T05:43:38;100191.78;;;18.91;49.35
25638;BME280;13496;51.040;13.680;2024-03-06T05:48:42;100193.41;;;18.92;49.12
25638;BME280;13496;51.040;13.680;2024-03-06T05:53:44;100203.09;;;18.92;49.33
25638;BME280;13496;51.040;13.680;2024-03-06T05:58:46;100212.81;;;18.91;49.14
25638;BME280;13496;51.040;13.680;2024-03-06T06:03:50;100225.75;;;18.93;49.12
25638;BME280;13496;51.040;13.680;2024-03-06T06:08:53;100227.38;;;18.94;49.06
25638;BME280;13496;51.040;13.680;2024-03-06T06:13:54;100235.13;;;18.95;49.18
25638;BME280;13496;51.040;13.680;2024-03-06T06:18:56;100241.34;;;18.94;48.89
25638;BME280;13496;51.040;13.680;2024-03-06T06:23:58;100243.16;;;18.94;48.88
25638;BME280;13496;51.040;13.680;2024-03-06T06:29:00;100255.69;;;18.92;49.04
25638;BME280;13496;51.040;13.680;2024-03-06T06:34:02;100258.78;;;18.95;48.80
25638;BME280;13496;51.040;13.680;2024-03-06T06:39:04;100263.03;;;18.96;48.91
25638;BME280;13496;51.040;13.680;2024-03-06T06:44:07;100257.59;;;18.98;49.06
25638;BME280;13496;51.040;13.680;2024-03-06T06:49:09;100263.19;;;18.95;49.19
25638;BME280;13496;51.040;13.680;2024-03-06T06:54:11;100276.00;;;18.98;48.85
25638;BME280;13496;51.040;13.680;2024-03-06T06:59:13;100270.75;;;18.98;48.81
25638;BME280;13496;51.040;13.680;2024-03-06T07:04:15;100275.50;;;19.02;48.93
25638;BME280;13496;51.040;13.680;2024-03-06T07:09:21;100277.75;;;19.05;48.89
25638;BME280;13496;51.040;13.680;2024-03-06T07:14:23;100278.19;;;19.09;48.84
25638;BME280;13496;51.040;13.680;2024-03-06T07:19:25;100279.66;;;19.12;48.93
25638;BME280;13496;51.040;13.680;2024-03-06T07:24:27;100285.59;;;19.14;48.56
25638;BME280;13496;51.040;13.680;2024-03-06T07:29:29;100292.94;;;19.18;48.89
25638;BME280;13496;51.040;13.680;2024-03-06T07:34:31;100296.66;;;19.24;48.53
25638;BME280;13496;51.040;13.680;2024-03-06T07:39:33;100298.75;;;19.28;48.57
25638;BME280;13496;51.040;13.680;2024-03-06T07:44:36;100302.66;;;19.32;48.63
25638;BME280;13496;51.040;13.680;2024-03-06T07:49:38;100301.13;;;19.38;48.48
25638;BME280;13496;51.040;13.680;2024-03-06T07:54:40;100303.41;;;19.41;48.18
25638;BME280;13496;51.040;13.680;2024-03-06T07:59:42;100299.41;;;19.45;48.52
25638;BME280;13496;51.040;13.680;2024-03-06T08:04:44;100307.56;;;19.50;48.26
25638;BME280;13496;51.040;13.680;2024-03-06T08:09:45;100312.41;;;19.62;48.20
25638;BME280;13496;51.040;13.680;2024-03-06T08:14:47;100304.97;;;19.65;48.18
25638;BME280;13496;51.040;13.680;2024-03-06T08:19:49;100310.53;;;19.70;48.00
25638;BME280;13496;51.040;13.680;2024-03-06T08:24:51;100316.41;;;19.72;48.19
25638;BME280;13496;51.040;13.680;2024-03-06T08:29:53;100317.88;;;19.75;47.98
25638;BME280;13496;51.040;13.680;2024-03-06T08:34:54;100324.25;;;19.80;47.69
25638;BME280;13496;51.040;13.680;2024-03-06T08:40:01;100322.88;;;19.85;47.67
25638;BME280;13496;51.040;13.680;2024-03-06T08:45:04;100328.41;;;19.90;47.72
25638;BME280;13496;51.040;13.680;2024-03-06T08:50:06;100321.16;;;19.92;48.08
25638;BME280;13496;51.040;13.680;2024-03-06T08:55:11;100325.06;;;19.96;48.06
25638;BME280;13496;51.040;13.680;2024-03-06T09:00:13;100339.03;;;19.96;47.87
25638;BME280;13496;51.040;13.680;2024-03-06T09:05:16;100343.13;;;19.99;47.90
25638;BME280;13496;51.040;13.680;2024-03-06T09:10:18;100336.84;;;20.00;47.91
25638;BME280;13496;51.040;13.680;2024-03-06T09:15:21;100342.38;;;20.05;47.79
25638;BME280;13496;51.040;13.680;2024-03-06T09:20:22;100344.41;;;20.03;47.79
25638;BME280;13496;51.040;13.680;2024-03-06T09:25:26;100344.03;;;20.06;47.96
25638;BME280;13496;51.040;13.680;2024-03-06T09:30:27;100349.56;;;20.11;48.09
25638;BME280;13496;51.040;13.680;2024-03-06T09:35:29;100355.63;;;20.12;47.75
25638;BME280;13496;51.040;13.680;2024-03-06T09:40:31;100355.91;;;20.17;48.04
25638;BME280;13496;51.040;13.680;2024-03-06T09:45:33;100358.00;;;20.21;48.04
25638;BME280;13496;51.040;13.680;2024-03-06T09:50:35;100365.72;;;20.23;47.71
25638;BME280;13496;51.040;13.680;2024-03-06T09:55:40;100364.19;;;20.28;47.75
25638;BME280;13496;51.040;13.680;2024-03-06T10:00:44;100372.94;;;20.36;47.43
25638;BME280;13496;51.040;13.680;2024-03-06T10:05:45;100375.06;;;20.40;47.59
25638;BME280;13496;51.040;13.680;2024-03-06T10:10:49;100383.59;;;20.42;47.45
25638;BME280;13496;51.040;13.680;2024-03-06T10:16:02;100382.41;;;20.45;47.73
25638;BME280;13496;51.040;13.680;2024-03-06T10:21:05;100381.88;;;20.49;47.87
25638;BME280;13496;51.040;13.680;2024-03-06T10:26:07;100377.84;;;20.53;47.39
25638;BME280;13496;51.040;13.680;2024-03-06T10:31:09;100380.34;;;20.55;47.53
25638;BME280;13496;51.040;13.680;2024-03-06T10:36:11;100383.66;;;20.49;47.94
25638;BME280;13496;51.040;13.680;2024-03-06T10:41:14;100385.97;;;20.52;47.55
25638;BME280;13496;51.040;13.680;2024-03-06T10:46:19;100387.59;;;20.53;47.64
25638;BME280;13496;51.040;13.680;2024-03-06T10:51:22;100380.34;;;20.55;47.87
25638;BME280;13496;51.040;13.680;2024-03-06T10:56:24;100378.94;;;20.59;47.84
25638;BME280;13496;51.040;13.680;2024-03-06T11:01:27;100382.41;;;20.60;47.73
25638;BME280;13496;51.040;13.680;2024-03-06T11:06:34;100382.41;;;20.60;48.04
25638;BME280;13496;51.040;13.680;2024-03-06T11:11:47;100381.75;;;20.58;47.94
25638;BME280;13496;51.040;13.680;2024-03-06T11:17:08;100381.47;;;20.67;47.87
25638;BME280;13496;51.040;13.680;2024-03-06T11:22:10;100380.00;;;20.65;47.87
25638;BME280;13496;51.040;13.680;2024-03-06T11:27:12;100388.94;;;20.64;47.71
25638;BME280;13496;51.040;13.680;2024-03-06T11:32:17;100393.03;;;20.66;48.02
25638;BME280;13496;51.040;13.680;2024-03-06T11:37:20;100388.38;;;20.68;47.77
25638;BME280;13496;51.040;13.680;2024-03-06T11:42:34;100395.47;;;20.68;47.85
25638;BME280;13496;51.040;13.680;2024-03-06T11:47:59;100387.75;;;20.66;47.70
25638;BME280;13496;51.040;13.680;2024-03-06T11:53:02;100396.66;;;20.65;48.01
25638;BME280;13496;51.040;13.680;2024-03-06T11:58:04;100398.31;;;20.66;47.91
25638;BME280;13496;51.040;13.680;2024-03-06T12:03:06;100394.28;;;20.70;47.73
25638;BME280;13496;51.040;13.680;2024-03-06T12:08:08;100397.53;;;20.72;47.63
25638;BME280;13496;51.040;13.680;2024-03-06T12:13:10;100394.72;;;20.74;47.72
25638;BME280;13496;51.040;13.680;2024-03-06T12:18:12;100399.19;;;20.73;47.75
25638;BME280;13496;51.040;13.680;2024-03-06T12:23:21;100394.53;;;20.75;47.65
25638;BME280;13496;51.040;13.680;2024-03-06T12:28:24;100401.03;;;20.73;47.64
25638;BME280;13496;51.040;13.680;2024-03-06T12:33:26;100395.19;;;20.77;47.64
25638;BME280;13496;51.040;13.680;2024-03-06T12:38:28;100399.25;;;20.80;47.53
25638;BME280;13496;51.040;13.680;2024-03-06T12:43:31;100387.16;;;20.86;47.52
25638;BME280;13496;51.040;13.680;2024-03-06T12:48:33;100390.88;;;20.91;47.35
25638;BME280;13496;51.040;13.680;2024-03-06T12:53:34;100383.06;;;21.26;46.74
25638;BME280;13496;51.040;13.680;2024-03-06T12:58:36;100376.53;;;21.43;46.40
25638;BME280;13496;51.040;13.680;2024-03-06T13:03:38;100385.28;;;21.44;46.53
25638;BME280;13496;51.040;13.680;2024-03-06T13:08:40;100379.19;;;21.43;46.32
25638;BME280;13496;51.040;13.680;2024-03-06T13:13:42;100381.88;;;21.29;46.30
25638;BME280;13496;51.040;13.680;2024-03-06T13:18:44;100381.09;;;21.13;46.72
25638;BME280;13496;51.040;13.680;2024-03-06T13:23:45;100385.50;;;21.06;47.03
25638;BME280;13496;51.040;13.680;2024-03-06T13:28:47;100390.31;;;20.96;47.26
25638;BME280;13496;51.040;13.680;2024-03-06T13:33:49;100396.16;;;20.91;47.13
25638;BME280;13496;51.040;13.680;2024-03-06T13:38:51;100388.78;;;20.87;47.18
25638;BME280;13496;51.040;13.680;2024-03-06T13:43:53;100397.69;;;20.86;46.98
25638;BME280;13496;51.040;13.680;2024-03-06T13:48:55;100385.69;;;20.83;47.07
25638;BME280;13496;51.040;13.680;2024-03-06T13:53:57;100380.41;;;20.83;47.27
25638;BME280;13496;51.040;13.680;2024-03-06T13:58:59;100380.63;;;20.82;47.42
25638;BME280;13496;51.040;13.680;2024-03-06T14:04:01;100385.25;;;20.79;47.04
25638;BME280;13496;51.040;13.680;2024-03-06T14:09:03;100385.66;;;20.76;47.20
25638;BME280;13496;51.040;13.680;2024-03-06T14:14:05;100397.19;;;20.75;47.27
25638;BME280;13496;51.040;13.680;2024-03-06T14:19:07;100397.53;;;20.72;47.38
25638;BME280;13496;51.040;13.680;2024-03-06T14:24:10;100392.66;;;20.69;47.53
25638;BME280;13496;51.040;13.680;2024-03-06T14:29:12;100397.94;;;20.69;47.24
25638;BME280;13496;51.040;13.680;2024-03-06T14:34:13;100393.84;;;20.67;47.67
25638;BME280;13496;51.040;13.680;2024-03-06T14:39:15;100405.56;;;20.64;47.33
25638;BME280;13496;51.040;13.680;2024-03-06T14:44:17;100396.84;;;20.64;47.35
25638;BME280;13496;51.040;13.680;2024-03-06T14:49:19;100399.69;;;20.62;47.29
25638;BME280;13496;51.040;13.680;2024-03-06T14:54:21;100400.66;;;20.61;47.21
25638;BME280;13496;51.040;13.680;2024-03-06T14:59:27;100409.59;;;20.60;47.60
25638;BME280;13496;51.040;13.680;2024-03-06T15:04:29;100418.66;;;20.58;47.36
25638;BME280;13496;51.040;13.680;2024-03-06T15:09:31;100417.25;;;20.55;47.59
25638;BME280;13496;51.040;13.680;2024-03-06T15:14:33;100426.13;;;20.54;47.37
25638;BME280;13496;51.040;13.680;2024-03-06T15:19:35;100419.44;;;20.51;47.44
25638;BME280;13496;51.040;13.680;2024-03-06T15:24:39;100426.13;;;20.54;47.52
25638;BME280;13496;51.040;13.680;2024-03-06T15:29:41;100427.34;;;20.51;47.66
25638;BME280;13496;51.040;13.680;2024-03-06T15:34:42;100426.69;;;20.49;47.37
25638;BME280;13496;51.040;13.680;2024-03-06T15:39:44;100437.06;;;20.51;47.82
25638;BME280;13496;51.040;13.680;2024-03-06T15:44:46;100430.31;;;20.48;47.71
25638;BME280;13496;51.040;13.680;2024-03-06T15:49:48;100425.84;;;20.49;47.77
25638;BME280;13496;51.040;13.680;2024-03-06T15:54:50;100434.94;;;20.46;47.51
25638;BME280;13496;51.040;13.680;2024-03-06T15:59:52;100427.22;;;20.45;47.82
25638;BME280;13496;51.040;13.680;2024-03-06T16:04:54;100438.41;;;20.47;47.92
25638;BME280;13496;51.040;13.680;2024-03-06T16:09:55;100437.75;;;20.45;48.26
25638;BME280;13496;51.040;13.680;2024-03-06T16:15:01;100439.38;;;20.46;48.28
25638;BME280;13496;51.040;13.680;2024-03-06T16:20:06;100442.22;;;20.44;48.40
25638;BME280;13496;51.040;13.680;2024-03-06T16:25:08;100455.56;;;20.43;48.23
25638;BME280;13496;51.040;13.680;2024-03-06T16:30:10;100463.47;;;20.43;48.55
25638;BME280;13496;51.040;13.680;2024-03-06T16:35:12;100465.19;;;20.36;48.64
25638;BME280;13496;51.040;13.680;2024-03-06T16:40:14;100468.69;;;20.36;48.51
25638;BME280;13496;51.040;13.680;2024-03-06T16:45:16;100471.47;;;20.35;48.37
25638;BME280;13496;51.040;13.680;2024-03-06T16:50:18;100476.94;;;20.33;48.77
25638;BME280;13496;51.040;13.680;2024-03-06T16:55:21;100477.28;;;20.30;48.56
25638;BME280;13496;51.040;13.680;2024-03-06T17:00:24;100486.03;;;20.30;48.49
25638;BME280;13496;51.040;13.680;2024-03-06T17:05:26;100492.47;;;20.28;48.59
25638;BME280;13496;51.040;13.680;2024-03-06T17:10:28;100498.75;;;20.27;48.76
25638;BME280;13496;51.040;13.680;2024-03-06T17:15:31;100508.47;;;20.26;48.68
25638;BME280;13496;51.040;13.680;2024-03-06T17:20:33;100504.19;;;20.25;48.71
25638;BME280;13496;51.040;13.680;2024-03-06T17:25:35;100515.72;;;20.24;48.80
25638;BME280;13496;51.040;13.680;2024-03-06T17:30:37;100508.81;;;20.23;48.80
25638;BME280;13496;51.040;13.680;2024-03-06T17:35:39;100521.00;;;20.24;48.92
25638;BME280;13496;51.040;13.680;2024-03-06T17:40:41;100519.34;;;20.23;48.72
25638;BME280;13496;51.040;13.680;2024-03-06T17:45:45;100530.91;;;20.22;48.59
25638;BME280;13496;51.040;13.680;2024-03-06T17:50:46;100527.25;;;20.23;48.79
25638;BME280;13496;51.040;13.680;2024-03-06T17:55:48;100536.34;;;20.21;48.69
25638;BME280;13496;51.040;13.680;2024-03-06T18:00:50;100536.53;;;20.19;48.96
25638;BME280;13496;51.040;13.680;2024-03-06T18:05:52;100533.28;;;20.17;49.02
25638;BME280;13496;51.040;13.680;2024-03-06T18:10:54;100536.88;;;20.16;48.99
25638;BME280;13496;51.040;13.680;2024-03-06T18:15:56;100541.19;;;20.17;48.79
25638;BME280;13496;51.040;13.680;2024-03-06T18:20:58;100542.97;;;20.17;48.73
25638;BME280;13496;51.040;13.680;2024-03-06T18:26:00;100545.78;;;20.15;48.73
25638;BME280;13496;51.040;13.680;2024-03-06T18:31:01;100547.63;;;20.15;48.80
25638;BME280;13496;51.040;13.680;2024-03-06T18:36:03;100544.78;;;20.16;48.79
25638;BME280;13496;51.040;13.680;2024-03-06T18:41:05;100554.50;;;20.16;48.88
25638;BME280;13496;51.040;13.680;2024-03-06T18:46:07;100550.25;;;20.15;48.74
25638;BME280;13496;51.040;13.680;2024-03-06T18:51:09;100560.94;;;20.13;48.79
25638;BME280;13496;51.040;13.680;2024-03-06T18:56:10;100558.31;;;20.13;49.19
25638;BME280;13496;51.040;13.680;2024-03-06T19:01:13;100562.97;;;20.11;49.17
25638;BME280;13496;51.040;13.680;2024-03-06T19:06:15;100568.03;;;20.13;48.87
25638;BME280;13496;51.040;13.680;2024-03-06T19:11:18;100565.94;;;20.08;49.29
25638;BME280;13496;51.040;13.680;2024-03-06T19:16:19;100574.31;;;20.12;49.32
25638;BME280;13496;51.040;13.680;2024-03-06T19:21:21;100581.75;;;20.08;49.42
25638;BME280;13496;51.040;13.680;2024-03-06T19:26:23;100576.19;;;20.03;49.48
25638;BME280;13496;51.040;13.680;2024-03-06T19:31:25;100581.47;;;20.03;49.41
25638;BME280;13496;51.040;13.680;2024-03-06T19:36:27;100581.47;;;20.03;49.50
25638;BME280;13496;51.040;13.680;2024-03-06T19:41:28;100581.13;;;20.06;49.54
25638;BME280;13496;51.040;13.680;2024-03-06T19:46:30;100588.19;;;20.05;49.70
25638;BME280;13496;51.040;13.680;2024-03-06T19:51:32;100593.44;;;20.05;50.09
25638;BME280;13496;51.040;13.680;2024-03-06T19:56:34;100588.03;;;20.07;50.10
25638;BME280;13496;51.040;13.680;2024-03-06T20:01:36;100594.44;;;20.04;49.94
25638;BME280;13496;51.040;13.680;2024-03-06T20:06:38;100588.38;;;20.04;49.69
25638;BME280;13496;51.040;13.680;2024-03-06T20:11:40;100586.09;;;20.01;49.86
25638;BME280;13496;51.040;13.680;2024-03-06T20:16:42;100589.72;;;20.00;49.82
25638;BME280;13496;51.040;13.680;2024-03-06T20:21:44;100590.34;;;20.02;50.22
25638;BME280;13496;51.040;13.680;2024-03-06T20:26:49;100589.38;;;20.03;50.42
25638;BME280;13496;51.040;13.680;2024-03-06T20:31:50;100590.34;;;20.02;50.52
25638;BME280;13496;51.040;13.680;2024-03-06T20:36:52;100590.34;;;20.02;50.61
25638;BME280;13496;51.040;13.680;2024-03-06T20:41:54;100585.94;;;20.02;50.47
25638;BME280;13496;51.040;13.680;2024-03-06T20:46:56;100585.94;;;20.02;50.50
25638;BME280;13496;51.040;13.680;2024-03-06T20:51:59;100582.44;;;20.02;50.60
25638;BME280;13496;51.040;13.680;2024-03-06T20:57:01;100588.25;;;19.97;50.70
25638;BME280;13496;51.040;13.680;2024-03-06T21:02:03;100599.59;;;19.98;50.97
25638;BME280;13496;51.040;13.680;2024-03-06T21:07:05;100589.41;;;19.95;50.80
25638;BME280;13496;51.040;13.680;2024-03-06T21:12:07;100584.16;;;19.95;51.13
25638;BME280;13496;51.040;13.680;2024-03-06T21:17:09;100583.81;;;19.98;50.62
25638;BME280;13496;51.040;13.680;2024-03-06T21:22:11;100585.81;;;19.96;51.15
25638;BME280;13496;51.040;13.680;2024-03-06T21:27:15;100581.34;;;19.96;51.07
25638;BME280;13496;51.040;13.680;2024-03-06T21:32:17;100587.44;;;19.97;50.71
25638;BME280;13496;51.040;13.680;2024-03-06T21:37:19;100585.16;;;19.94;50.77
25638;BME280;13496;51.040;13.680;2024-03-06T21:42:21;100579.88;;;19.94;50.34
25638;BME280;13496;51.040;13.680;2024-03-06T21:47:23;100588.97;;;19.91;50.25
25638;BME280;13496;51.040;13.680;2024-03-06T21:52:25;100585.50;;;19.91;50.45
25638;BME280;13496;51.040;13.680;2024-03-06T21:57:27;100586.16;;;19.93;50.16
25638;BME280;13496;51.040;13.680;2024-03-06T22:02:29;100591.41;;;19.93;50.20
25638;BME280;13496;51.040;13.680;2024-03-06T22:07:30;100590.59;;;19.92;50.25
25638;BME280;13496;51.040;13.680;2024-03-06T22:12:33;100595.22;;;19.90;50.07
25638;BME280;13496;51.040;13.680;2024-03-06T22:17:34;100583.72;;;19.91;49.97
25638;BME280;13496;51.040;13.680;2024-03-06T22:22:36;100592.78;;;19.89;50.00
25638;BME280;13496;51.040;13.680;2024-03-06T22:27:38;100590.13;;;19.89;50.13
25638;BME280;13496;51.040;13.680;2024-03-06T22:32:40;100590.00;;;19.82;49.93
25638;BME280;13496;51.040;13.680;2024-03-06T22:37:42;100590.97;;;19.89;50.02
25638;BME280;13496;51.040;13.680;2024-03-06T22:42:44;100584.06;;;19.88;50.20
25638;BME280;13496;51.040;13.680;2024-03-06T22:47:45;100588.66;;;19.86;50.10
25638;BME280;13496;51.040;13.680;2024-03-06T22:52:47;100583.59;;;19.85;49.79
25638;BME280;13496;51.040;13.680;2024-03-06T22:57:49;100582.47;;;19.79;49.89
25638;BME280;13496;51.040;13.680;2024-03-06T23:02:51;100593.19;;;19.77;49.82
25638;BME280;13496;51.040;13.680;2024-03-06T23:07:52;100584.47;;;19.77;49.86
25638;BME280;13496;51.040;13.680;2024-03-06T23:12:55;100582.81;;;19.76;49.94
25638;BME280;13496;51.040;13.680;2024-03-06T23:17:57;100584.47;;;19.77;50.07
25638;BME280;13496;51.040;13.680;2024-03-06T23:22:59;100592.38;;;19.77;49.62
25638;BME280;13496;51.040;13.680;2024-03-06T23:28:00;100589.88;;;19.75;49.83
25638;BME280;13496;51.040;13.680;2024-03-06T23:33:03;100591.56;;;19.76;49.66
25638;BME280;13496;51.040;13.680;2024-03-06T23:38:06;100590.22;;;19.72;50.03
25638;BME280;13496;51.040;13.680;2024-03-06T23:43:08;100589.06;;;19.75;49.75
25638;BME280;13496;51.040;13.680;2024-03-06T23:48:10;100595.34;;;19.74;49.82
25638;BME280;13496;51.040;13.680;2024-03-06T23:53:12;100591.91;;;19.73;49.51
25638;BME280;13496;51.040;13.680;2024-03-06T23:58:14;100601.78;;;19.71;49.47
